sensor_id;sensor_type;location;lat;lon;timestamp;P1;durP1;ratioP1;P2;durP2;ratioP2
3417;SDS011;68007;51.312;12.372;2023-06-10T00:02:06;7.70;;;4.33;;
3417;SDS011;68007;51.312;12.372;2023-06-10T00:04:34;4.80;;;3.50;;
3417;SDS011;68007;51.312;12.372;2023-06-10T00:07:02;6.67;;;4.23;;
3417;SDS011;68007;51.312;12.372;2023-06-10T00:09:34;7.50;;;4.63;;
3417;SDS011;68007;51.312;12.372;2023-06-10T00:12:02;14.33;;;4.63;;
3417;SDS011;68007;51.312;12.372;2023-06-10T00:14:30;7.63;;;4.50;;
3417;SDS011;68007;51.312;12.372;2023-06-10T00:16:59;8.00;;;4.60;;
3417;SDS011;68007;51.312;12.372;2023-06-10T00:19:28;7.63;;;4.10;;
3417;SDS011;68007;51.312;12.372;2023-06-10T00:21:55;6.70;;;4.13;;
3417;SDS011;68007;51.312;12.372;2023-06-10T00:24:24;6.60;;;4.20;;
3417;SDS011;68007;51.312;12.372;2023-06-10T00:26:51;6.97;;;3.97;;
3417;SDS011;68007;51.312;12.372;2023-06-10T00:29:19;10.23;;;4.73;;
3417;SDS011;68007;51.312;12.372;2023-06-10T00:31:46;6.23;;;4.27;;
3417;SDS011;68007;51.312;12.372;2023-06-10T00:34:15;10.87;;;4.37;;
3417;SDS011;68007;51.312;12.372;2023-06-10T00:36:43;7.13;;;3.80;;
3417;SDS011;68007;51.312;12.372;2023-06-10T00:39:10;8.23;;;4.60;;
3417;SDS011;68007;51.312;12.372;2023-06-10T00:41:38;6.70;;;3.50;;
3417;SDS011;68007;51.312;12.372;2023-06-10T00:44:05;8.33;;;4.33;;
3417;SDS011;68007;51.312;12.372;2023-06-10T00:46:33;7.73;;;4.27;;
3417;SDS011;68007;51.312;12.372;2023-06-10T00:49:01;8.57;;;3.97;;
3417;SDS011;68007;51.312;12.372;2023-06-10T00:51:30;7.80;;;4.50;;
3417;SDS011;68007;51.312;12.372;2023-06-10T00:53:57;8.00;;;4.00;;
3417;SDS011;68007;51.312;12.372;2023-06-10T00:56:25;10.70;;;4.60;;
3417;SDS011;68007;51.312;12.372;2023-06-10T00:58:54;5.90;;;4.60;;
3417;SDS011;68007;51.312;12.372;2023-06-10T01:01:21;11.47;;;4.20;;
3417;SDS011;68007;51.312;12.372;2023-06-10T01:03:49;10.23;;;4.87;;
3417;SDS011;68007;51.312;12.372;2023-06-10T01:06:19;6.17;;;3.83;;
3417;SDS011;68007;51.312;12.372;2023-06-10T01:08:56;12.03;;;4.23;;
3417;SDS011;68007;51.312;12.372;2023-06-10T01:11:29;8.93;;;4.13;;
3417;SDS011;68007;51.312;12.372;2023-06-10T01:14:03;10.63;;;4.77;;
3417;SDS011;68007;51.312;12.372;2023-06-10T01:16:33;7.03;;;4.00;;
3417;SDS011;68007;51.312;12.372;2023-06-10T01:19:02;6.23;;;4.17;;
3417;SDS011;68007;51.312;12.372;2023-06-10T01:21:31;18.77;;;11.07;;
3417;SDS011;68007;51.312;12.372;2023-06-10T01:23:59;9.87;;;5.00;;
3417;SDS011;68007;51.312;12.372;2023-06-10T01:26:28;6.90;;;4.03;;
3417;SDS011;68007;51.312;12.372;2023-06-10T01:28:59;5.53;;;3.77;;
3417;SDS011;68007;51.312;12.372;2023-06-10T01:31:36;6.67;;;4.53;;
3417;SDS011;68007;51.312;12.372;2023-06-10T01:34:10;8.13;;;4.30;;
3417;SDS011;68007;51.312;12.372;2023-06-10T01:36:41;8.47;;;4.63;;
3417;SDS011;68007;51.312;12.372;2023-06-10T01:39:13;10.23;;;5.30;;
3417;SDS011;68007;51.312;12.372;2023-06-10T01:41:41;6.93;;;4.20;;
3417;SDS011;68007;51.312;12.372;2023-06-10T01:44:09;5.87;;;4.40;;
3417;SDS011;68007;51.312;12.372;2023-06-10T01:46:37;10.47;;;4.83;;
3417;SDS011;68007;51.312;12.372;2023-06-10T01:49:04;7.97;;;4.60;;
3417;SDS011;68007;51.312;12.372;2023-06-10T01:51:32;9.43;;;4.43;;
3417;SDS011;68007;51.312;12.372;2023-06-10T01:54:01;10.10;;;4.80;;
3417;SDS011;68007;51.312;12.372;2023-06-10T01:56:29;10.17;;;4.60;;
3417;SDS011;68007;51.312;12.372;2023-06-10T01:58:56;8.93;;;4.53;;
3417;SDS011;68007;51.312;12.372;2023-06-10T02:01:24;6.00;;;4.87;;
3417;SDS011;68007;51.312;12.372;2023-06-10T02:03:52;14.53;;;6.30;;
3417;SDS011;68007;51.312;12.372;2023-06-10T02:06:19;10.07;;;5.47;;
3417;SDS011;68007;51.312;12.372;2023-06-10T02:08:47;9.27;;;5.40;;
3417;SDS011;68007;51.312;12.372;2023-06-10T02:11:16;9.10;;;6.10;;
3417;SDS011;68007;51.312;12.372;2023-06-10T02:13:43;10.83;;;5.80;;
3417;SDS011;68007;51.312;12.372;2023-06-10T02:16:11;8.87;;;5.77;;
3417;SDS011;68007;51.312;12.372;2023-06-10T02:18:38;14.63;;;7.03;;
3417;SDS011;68007;51.312;12.372;2023-06-10T02:21:08;11.40;;;6.17;;
3417;SDS011;68007;51.312;12.372;2023-06-10T02:23:36;14.40;;;7.00;;
3417;SDS011;68007;51.312;12.372;2023-06-10T02:26:04;11.37;;;6.07;;
3417;SDS011;68007;51.312;12.372;2023-06-10T02:28:32;14.50;;;6.50;;
3417;SDS011;68007;51.312;12.372;2023-06-10T02:31:00;15.37;;;6.77;;
3417;SDS011;68007;51.312;12.372;2023-06-10T02:33:27;11.20;;;6.57;;
3417;SDS011;68007;51.312;12.372;2023-06-10T02:35:55;16.30;;;6.20;;
3417;SDS011;68007;51.312;12.372;2023-06-10T02:38:23;11.80;;;5.80;;
3417;SDS011;68007;51.312;12.372;2023-06-10T02:40:50;7.83;;;5.17;;
3417;SDS011;68007;51.312;12.372;2023-06-10T02:43:18;14.33;;;6.17;;
3417;SDS011;68007;51.312;12.372;2023-06-10T02:45:47;11.43;;;6.20;;
3417;SDS011;68007;51.312;12.372;2023-06-10T02:48:14;12.40;;;5.53;;
3417;SDS011;68007;51.312;12.372;2023-06-10T02:50:42;19.43;;;6.90;;
3417;SDS011;68007;51.312;12.372;2023-06-10T02:53:09;12.40;;;5.83;;
3417;SDS011;68007;51.312;12.372;2023-06-10T02:55:37;13.53;;;6.00;;
3417;SDS011;68007;51.312;12.372;2023-06-10T02:58:05;12.50;;;5.90;;
3417;SDS011;68007;51.312;12.372;2023-06-10T03:00:32;9.80;;;5.70;;
3417;SDS011;68007;51.312;12.372;2023-06-10T03:03:03;11.37;;;6.07;;
3417;SDS011;68007;51.312;12.372;2023-06-10T03:05:30;11.93;;;6.37;;
3417;SDS011;68007;51.312;12.372;2023-06-10T03:07:59;13.27;;;5.73;;
3417;SDS011;68007;51.312;12.372;2023-06-10T03:10:26;15.30;;;5.60;;
3417;SDS011;68007;51.312;12.372;2023-06-10T03:12:54;11.87;;;5.30;;
3417;SDS011;68007;51.312;12.372;2023-06-10T03:15:21;9.60;;;5.87;;
3417;SDS011;68007;51.312;12.372;2023-06-10T03:17:50;7.20;;;5.20;;
3417;SDS011;68007;51.312;12.372;2023-06-10T03:20:19;8.77;;;5.70;;
3417;SDS011;68007;51.312;12.372;2023-06-10T03:22:47;11.13;;;6.27;;
3417;SDS011;68007;51.312;12.372;2023-06-10T03:25:14;11.80;;;5.60;;
3417;SDS011;68007;51.312;12.372;2023-06-10T03:27:43;9.33;;;5.43;;
3417;SDS011;68007;51.312;12.372;2023-06-10T03:30:11;11.87;;;5.30;;
3417;SDS011;68007;51.312;12.372;2023-06-10T03:32:39;6.50;;;4.63;;
3417;SDS011;68007;51.312;12.372;2023-06-10T03:35:07;9.63;;;4.60;;
3417;SDS011;68007;51.312;12.372;2023-06-10T03:37:36;9.17;;;5.17;;
3417;SDS011;68007;51.312;12.372;2023-06-10T03:40:04;8.03;;;5.70;;
3417;SDS011;68007;51.312;12.372;2023-06-10T03:42:33;11.20;;;5.17;;
3417;SDS011;68007;51.312;12.372;2023-06-10T03:45:00;10.23;;;5.33;;
3417;SDS011;68007;51.312;12.372;2023-06-10T03:47:32;7.17;;;5.10;;
3417;SDS011;68007;51.312;12.372;2023-06-10T03:50:01;8.57;;;4.97;;
3417;SDS011;68007;51.312;12.372;2023-06-10T03:52:29;8.67;;;5.07;;
3417;SDS011;68007;51.312;12.372;2023-06-10T03:54:58;8.43;;;4.60;;
3417;SDS011;68007;51.312;12.372;2023-06-10T03:57:26;12.83;;;5.63;;
3417;SDS011;68007;51.312;12.372;2023-06-10T03:59:53;9.97;;;5.00;;
3417;SDS011;68007;51.312;12.372;2023-06-10T04:02:22;10.70;;;5.40;;
3417;SDS011;68007;51.312;12.372;2023-06-10T04:04:49;12.80;;;4.93;;
3417;SDS011;68007;51.312;12.372;2023-06-10T04:07:19;9.37;;;5.20;;
3417;SDS011;68007;51.312;12.372;2023-06-10T04:09:46;5.73;;;4.03;;
3417;SDS011;68007;51.312;12.372;2023-06-10T04:12:15;5.43;;;4.30;;
3417;SDS011;68007;51.312;12.372;2023-06-10T04:14:43;6.53;;;4.50;;
3417;SDS011;68007;51.312;12.372;2023-06-10T04:17:10;8.37;;;4.47;;
3417;SDS011;68007;51.312;12.372;2023-06-10T04:19:38;7.17;;;4.97;;
3417;SDS011;68007;51.312;12.372;2023-06-10T04:22:06;7.83;;;5.00;;
3417;SDS011;68007;51.312;12.372;2023-06-10T04:24:33;9.30;;;4.60;;
3417;SDS011;68007;51.312;12.372;2023-06-10T04:27:01;10.50;;;5.00;;
3417;SDS011;68007;51.312;12.372;2023-06-10T04:29:30;10.03;;;4.80;;
3417;SDS011;68007;51.312;12.372;2023-06-10T04:31:57;8.50;;;5.40;;
3417;SDS011;68007;51.312;12.372;2023-06-10T04:34:25;14.77;;;5.00;;
3417;SDS011;68007;51.312;12.372;2023-06-10T04:36:53;11.27;;;4.80;;
3417;SDS011;68007;51.312;12.372;2023-06-10T04:39:21;7.87;;;5.20;;
3417;SDS011;68007;51.312;12.372;2023-06-10T04:41:49;11.90;;;5.10;;
3417;SDS011;68007;51.312;12.372;2023-06-10T04:44:16;10.10;;;4.90;;
3417;SDS011;68007;51.312;12.372;2023-06-10T04:46:46;16.70;;;5.40;;
3417;SDS011;68007;51.312;12.372;2023-06-10T04:49:13;10.40;;;5.30;;
3417;SDS011;68007;51.312;12.372;2023-06-10T04:51:41;7.93;;;5.30;;
3417;SDS011;68007;51.312;12.372;2023-06-10T04:54:08;11.47;;;4.70;;
3417;SDS011;68007;51.312;12.372;2023-06-10T04:56:36;9.77;;;4.90;;
3417;SDS011;68007;51.312;12.372;2023-06-10T04:59:05;10.40;;;5.20;;
3417;SDS011;68007;51.312;12.372;2023-06-10T05:01:33;12.43;;;5.03;;
3417;SDS011;68007;51.312;12.372;2023-06-10T05:04:02;14.57;;;5.40;;
3417;SDS011;68007;51.312;12.372;2023-06-10T05:06:31;7.80;;;5.67;;
3417;SDS011;68007;51.312;12.372;2023-06-10T05:08:58;6.67;;;4.60;;
3417;SDS011;68007;51.312;12.372;2023-06-10T05:11:26;7.27;;;4.67;;
3417;SDS011;68007;51.312;12.372;2023-06-10T05:13:53;9.33;;;4.80;;
3417;SDS011;68007;51.312;12.372;2023-06-10T05:16:20;10.23;;;5.53;;
3417;SDS011;68007;51.312;12.372;2023-06-10T05:18:48;9.53;;;5.67;;
3417;SDS011;68007;51.312;12.372;2023-06-10T05:21:18;11.10;;;5.53;;
3417;SDS011;68007;51.312;12.372;2023-06-10T05:23:46;9.97;;;5.93;;
3417;SDS011;68007;51.312;12.372;2023-06-10T05:26:13;11.83;;;5.50;;
3417;SDS011;68007;51.312;12.372;2023-06-10T05:28:41;9.20;;;4.90;;
3417;SDS011;68007;51.312;12.372;2023-06-10T05:31:09;10.03;;;5.50;;
3417;SDS011;68007;51.312;12.372;2023-06-10T05:33:37;9.17;;;5.07;;
3417;SDS011;68007;51.312;12.372;2023-06-10T05:36:04;9.23;;;5.70;;
3417;SDS011;68007;51.312;12.372;2023-06-10T05:38:34;5.87;;;4.10;;
3417;SDS011;68007;51.312;12.372;2023-06-10T05:41:01;8.33;;;5.33;;
3417;SDS011;68007;51.312;12.372;2023-06-10T05:43:29;12.00;;;5.97;;
3417;SDS011;68007;51.312;12.372;2023-06-10T05:45:57;13.50;;;6.03;;
3417;SDS011;68007;51.312;12.372;2023-06-10T05:48:24;10.07;;;5.43;;
3417;SDS011;68007;51.312;12.372;2023-06-10T05:50:52;10.07;;;6.27;;
3417;SDS011;68007;51.312;12.372;2023-06-10T05:53:19;13.47;;;6.70;;
3417;SDS011;68007;51.312;12.372;2023-06-10T05:55:48;11.40;;;6.47;;
3417;SDS011;68007;51.312;12.372;2023-06-10T05:58:15;10.57;;;6.10;;
3417;SDS011;68007;51.312;12.372;2023-06-10T06:00:43;9.57;;;5.63;;
3417;SDS011;68007;51.312;12.372;2023-06-10T06:03:10;11.57;;;5.73;;
3417;SDS011;68007;51.312;12.372;2023-06-10T06:05:38;10.30;;;6.10;;
3417;SDS011;68007;51.312;12.372;2023-06-10T06:08:06;12.50;;;5.90;;
3417;SDS011;68007;51.312;12.372;2023-06-10T06:10:34;9.97;;;5.70;;
3417;SDS011;68007;51.312;12.372;2023-06-10T06:13:02;12.13;;;6.20;;
3417;SDS011;68007;51.312;12.372;2023-06-10T06:15:30;10.60;;;6.13;;
3417;SDS011;68007;51.312;12.372;2023-06-10T06:17:57;14.77;;;6.50;;
3417;SDS011;68007;51.312;12.372;2023-06-10T06:20:25;11.50;;;5.97;;
3417;SDS011;68007;51.312;12.372;2023-06-10T06:22:52;11.90;;;6.57;;
3417;SDS011;68007;51.312;12.372;2023-06-10T06:25:20;10.50;;;6.23;;
3417;SDS011;68007;51.312;12.372;2023-06-10T06:27:47;12.23;;;6.37;;
3417;SDS011;68007;51.312;12.372;2023-06-10T06:30:16;10.77;;;6.17;;
3417;SDS011;68007;51.312;12.372;2023-06-10T06:32:44;10.80;;;6.23;;
3417;SDS011;68007;51.312;12.372;2023-06-10T06:35:12;11.77;;;7.23;;
3417;SDS011;68007;51.312;12.372;2023-06-10T06:37:39;11.97;;;6.27;;
3417;SDS011;68007;51.312;12.372;2023-06-10T06:40:07;14.40;;;6.23;;
3417;SDS011;68007;51.312;12.372;2023-06-10T06:42:35;13.20;;;6.50;;
3417;SDS011;68007;51.312;12.372;2023-06-10T06:45:03;11.33;;;6.50;;
3417;SDS011;68007;51.312;12.372;2023-06-10T06:47:32;15.33;;;6.93;;
3417;SDS011;68007;51.312;12.372;2023-06-10T06:50:00;12.67;;;6.50;;
3417;SDS011;68007;51.312;12.372;2023-06-10T06:52:28;12.13;;;6.27;;
3417;SDS011;68007;51.312;12.372;2023-06-10T06:54:55;15.63;;;6.73;;
3417;SDS011;68007;51.312;12.372;2023-06-10T06:57:23;12.67;;;7.17;;
3417;SDS011;68007;51.312;12.372;2023-06-10T06:59:50;11.73;;;6.30;;
3417;SDS011;68007;51.312;12.372;2023-06-10T07:02:18;11.33;;;5.80;;
3417;SDS011;68007;51.312;12.372;2023-06-10T07:04:47;9.90;;;7.10;;
3417;SDS011;68007;51.312;12.372;2023-06-10T07:07:15;10.73;;;5.90;;
3417;SDS011;68007;51.312;12.372;2023-06-10T07:09:42;10.20;;;6.17;;
3417;SDS011;68007;51.312;12.372;2023-06-10T07:12:10;11.67;;;6.23;;
3417;SDS011;68007;51.312;12.372;2023-06-10T07:14:37;10.40;;;6.83;;
3417;SDS011;68007;51.312;12.372;2023-06-10T07:17:05;11.63;;;7.67;;
3417;SDS011;68007;51.312;12.372;2023-06-10T07:19:33;13.63;;;7.33;;
3417;SDS011;68007;51.312;12.372;2023-06-10T07:22:02;11.67;;;7.13;;
3417;SDS011;68007;51.312;12.372;2023-06-10T07:24:29;12.40;;;6.77;;
3417;SDS011;68007;51.312;12.372;2023-06-10T07:26:57;13.33;;;6.33;;
3417;SDS011;68007;51.312;12.372;2023-06-10T07:29:24;12.23;;;7.37;;
3417;SDS011;68007;51.312;12.372;2023-06-10T07:31:52;12.20;;;7.07;;
3417;SDS011;68007;51.312;12.372;2023-06-10T07:34:19;14.80;;;7.73;;
3417;SDS011;68007;51.312;12.372;2023-06-10T07:36:47;13.73;;;7.93;;
3417;SDS011;68007;51.312;12.372;2023-06-10T07:39:16;17.33;;;7.90;;
3417;SDS011;68007;51.312;12.372;2023-06-10T07:41:43;12.60;;;7.00;;
3417;SDS011;68007;51.312;12.372;2023-06-10T07:44:11;10.40;;;6.47;;
3417;SDS011;68007;51.312;12.372;2023-06-10T07:46:38;10.70;;;7.50;;
3417;SDS011;68007;51.312;12.372;2023-06-10T07:49:06;10.40;;;6.80;;
3417;SDS011;68007;51.312;12.372;2023-06-10T07:51:33;16.67;;;6.90;;
3417;SDS011;68007;51.312;12.372;2023-06-10T07:54:02;10.73;;;7.10;;
3417;SDS011;68007;51.312;12.372;2023-06-10T07:56:31;14.17;;;7.30;;
3417;SDS011;68007;51.312;12.372;2023-06-10T07:58:58;14.07;;;7.90;;
3417;SDS011;68007;51.312;12.372;2023-06-10T08:01:26;9.40;;;6.70;;
3417;SDS011;68007;51.312;12.372;2023-06-10T08:03:55;19.97;;;7.80;;
3417;SDS011;68007;51.312;12.372;2023-06-10T08:06:23;10.77;;;6.80;;
3417;SDS011;68007;51.312;12.372;2023-06-10T08:08:50;10.50;;;7.50;;
3417;SDS011;68007;51.312;12.372;2023-06-10T08:11:18;9.73;;;6.37;;
3417;SDS011;68007;51.312;12.372;2023-06-10T08:13:47;13.63;;;7.70;;
3417;SDS011;68007;51.312;12.372;2023-06-10T08:16:16;11.90;;;7.70;;
3417;SDS011;68007;51.312;12.372;2023-06-10T08:18:43;10.53;;;7.20;;
3417;SDS011;68007;51.312;12.372;2023-06-10T08:21:11;9.77;;;7.00;;
3417;SDS011;68007;51.312;12.372;2023-06-10T08:23:38;10.90;;;7.03;;
3417;SDS011;68007;51.312;12.372;2023-06-10T08:26:06;10.57;;;6.77;;
3417;SDS011;68007;51.312;12.372;2023-06-10T08:28:33;13.63;;;7.50;;
3417;SDS011;68007;51.312;12.372;2023-06-10T08:31:02;8.20;;;6.10;;
3417;SDS011;68007;51.312;12.372;2023-06-10T08:33:30;12.60;;;7.80;;
3417;SDS011;68007;51.312;12.372;2023-06-10T08:35:57;13.40;;;7.40;;
3417;SDS011;68007;51.312;12.372;2023-06-10T08:38:25;12.30;;;7.60;;
3417;SDS011;68007;51.312;12.372;2023-06-10T08:40:53;8.80;;;6.40;;
3417;SDS011;68007;51.312;12.372;2023-06-10T08:43:28;7.97;;;5.83;;
3417;SDS011;68007;51.312;12.372;2023-06-10T08:46:00;15.40;;;6.93;;
3417;SDS011;68007;51.312;12.372;2023-06-10T08:48:30;11.33;;;7.13;;
3417;SDS011;68007;51.312;12.372;2023-06-10T08:51:01;11.17;;;6.80;;
3417;SDS011;68007;51.312;12.372;2023-06-10T08:53:31;13.50;;;7.90;;
3417;SDS011;68007;51.312;12.372;2023-06-10T08:56:03;11.70;;;7.40;;
3417;SDS011;68007;51.312;12.372;2023-06-10T08:58:32;12.20;;;8.47;;
3417;SDS011;68007;51.312;12.372;2023-06-10T09:01:06;9.13;;;6.57;;
3417;SDS011;68007;51.312;12.372;2023-06-10T09:03:35;11.20;;;7.40;;
3417;SDS011;68007;51.312;12.372;2023-06-10T09:06:04;13.03;;;8.50;;
3417;SDS011;68007;51.312;12.372;2023-06-10T09:08:33;11.17;;;7.87;;
3417;SDS011;68007;51.312;12.372;2023-06-10T09:11:01;7.73;;;6.80;;
3417;SDS011;68007;51.312;12.372;2023-06-10T09:13:28;9.60;;;7.80;;
3417;SDS011;68007;51.312;12.372;2023-06-10T09:15:56;9.03;;;6.50;;
3417;SDS011;68007;51.312;12.372;2023-06-10T09:18:26;10.67;;;7.57;;
3417;SDS011;68007;51.312;12.372;2023-06-10T09:20:56;10.00;;;7.27;;
3417;SDS011;68007;51.312;12.372;2023-06-10T09:23:23;12.90;;;8.03;;
3417;SDS011;68007;51.312;12.372;2023-06-10T09:25:56;10.87;;;7.60;;
3417;SDS011;68007;51.312;12.372;2023-06-10T09:28:24;13.17;;;8.00;;
3417;SDS011;68007;51.312;12.372;2023-06-10T09:31:01;9.93;;;7.50;;
3417;SDS011;68007;51.312;12.372;2023-06-10T09:33:30;11.60;;;8.23;;
3417;SDS011;68007;51.312;12.372;2023-06-10T09:35:59;16.50;;;8.90;;
3417;SDS011;68007;51.312;12.372;2023-06-10T09:38:29;16.13;;;9.03;;
3417;SDS011;68007;51.312;12.372;2023-06-10T09:40:58;15.13;;;10.43;;
3417;SDS011;68007;51.312;12.372;2023-06-10T09:43:38;17.00;;;10.57;;
3417;SDS011;68007;51.312;12.372;2023-06-10T09:46:07;16.00;;;9.90;;
3417;SDS011;68007;51.312;12.372;2023-06-10T09:48:42;12.60;;;7.50;;
3417;SDS011;68007;51.312;12.372;2023-06-10T09:51:11;10.13;;;8.07;;
3417;SDS011;68007;51.312;12.372;2023-06-10T09:53:39;12.00;;;8.00;;
3417;SDS011;68007;51.312;12.372;2023-06-10T09:56:07;13.73;;;9.23;;
3417;SDS011;68007;51.312;12.372;2023-06-10T09:58:35;12.80;;;9.03;;
3417;SDS011;68007;51.312;12.372;2023-06-10T10:01:09;9.33;;;7.53;;
3417;SDS011;68007;51.312;12.372;2023-06-10T10:03:43;8.90;;;7.13;;
3417;SDS011;68007;51.312;12.372;2023-06-10T10:06:15;11.37;;;8.17;;
3417;SDS011;68007;51.312;12.372;2023-06-10T10:08:44;11.40;;;7.23;;
3417;SDS011;68007;51.312;12.372;2023-06-10T10:11:12;9.80;;;8.07;;
3417;SDS011;68007;51.312;12.372;2023-06-10T10:13:43;10.23;;;8.07;;
3417;SDS011;68007;51.312;12.372;2023-06-10T10:16:14;15.13;;;8.67;;
3417;SDS011;68007;51.312;12.372;2023-06-10T10:18:45;12.60;;;7.57;;
3417;SDS011;68007;51.312;12.372;2023-06-10T10:21:16;11.60;;;9.17;;
3417;SDS011;68007;51.312;12.372;2023-06-10T10:23:52;10.67;;;7.73;;
3417;SDS011;68007;51.312;12.372;2023-06-10T10:26:24;10.37;;;8.07;;
3417;SDS011;68007;51.312;12.372;2023-06-10T10:29:07;12.77;;;7.37;;
3417;SDS011;68007;51.312;12.372;2023-06-10T10:31:38;10.80;;;7.63;;
3417;SDS011;68007;51.312;12.372;2023-06-10T10:34:09;9.10;;;7.57;;
3417;SDS011;68007;51.312;12.372;2023-06-10T10:36:43;9.10;;;8.30;;
3417;SDS011;68007;51.312;12.372;2023-06-10T10:39:13;12.10;;;8.30;;
3417;SDS011;68007;51.312;12.372;2023-06-10T10:41:41;12.93;;;8.30;;
3417;SDS011;68007;51.312;12.372;2023-06-10T10:44:10;9.70;;;7.77;;
3417;SDS011;68007;51.312;12.372;2023-06-10T10:46:41;10.70;;;8.00;;
3417;SDS011;68007;51.312;12.372;2023-06-10T10:49:10;13.77;;;7.93;;
3417;SDS011;68007;51.312;12.372;2023-06-10T10:51:55;10.40;;;7.07;;
3417;SDS011;68007;51.312;12.372;2023-06-10T10:54:29;8.70;;;6.80;;
3417;SDS011;68007;51.312;12.372;2023-06-10T10:59:51;11.67;;;7.17;;
3417;SDS011;68007;51.312;12.372;2023-06-10T11:02:38;12.93;;;7.60;;
3417;SDS011;68007;51.312;12.372;2023-06-10T11:05:10;9.03;;;7.10;;
3417;SDS011;68007;51.312;12.372;2023-06-10T11:07:39;8.03;;;6.93;;
3417;SDS011;68007;51.312;12.372;2023-06-10T11:10:08;10.50;;;7.10;;
3417;SDS011;68007;51.312;12.372;2023-06-10T11:12:53;8.23;;;7.00;;
3417;SDS011;68007;51.312;12.372;2023-06-10T11:15:22;8.90;;;7.40;;
3417;SDS011;68007;51.312;12.372;2023-06-10T11:18:09;7.77;;;6.27;;
3417;SDS011;68007;51.312;12.372;2023-06-10T11:20:44;9.40;;;6.80;;
3417;SDS011;68007;51.312;12.372;2023-06-10T11:26:13;8.73;;;6.37;;
3417;SDS011;68007;51.312;12.372;2023-06-10T11:28:42;6.40;;;5.80;;
3417;SDS011;68007;51.312;12.372;2023-06-10T11:31:29;6.97;;;6.27;;
3417;SDS011;68007;51.312;12.372;2023-06-10T11:33:59;7.43;;;5.63;;
3417;SDS011;68007;51.312;12.372;2023-06-10T11:36:27;9.43;;;6.43;;
3417;SDS011;68007;51.312;12.372;2023-06-10T11:38:57;7.43;;;5.90;;
3417;SDS011;68007;51.312;12.372;2023-06-10T11:41:26;6.70;;;5.60;;
3417;SDS011;68007;51.312;12.372;2023-06-10T11:43:55;11.03;;;6.27;;
3417;SDS011;68007;51.312;12.372;2023-06-10T11:46:23;6.93;;;5.97;;
3417;SDS011;68007;51.312;12.372;2023-06-10T11:48:53;7.47;;;6.50;;
3417;SDS011;68007;51.312;12.372;2023-06-10T11:51:24;6.47;;;5.87;;
3417;SDS011;68007;51.312;12.372;2023-06-10T11:53:53;8.33;;;6.03;;
3417;SDS011;68007;51.312;12.372;2023-06-10T11:56:22;6.80;;;6.00;;
3417;SDS011;68007;51.312;12.372;2023-06-10T11:58:52;11.20;;;6.80;;
3417;SDS011;68007;51.312;12.372;2023-06-10T12:01:21;7.80;;;5.90;;
3417;SDS011;68007;51.312;12.372;2023-06-10T12:03:56;9.50;;;5.80;;
3417;SDS011;68007;51.312;12.372;2023-06-10T12:06:24;13.30;;;6.03;;
3417;SDS011;68007;51.312;12.372;2023-06-10T12:08:53;8.97;;;6.43;;
3417;SDS011;68007;51.312;12.372;2023-06-10T12:11:23;8.57;;;6.13;;
3417;SDS011;68007;51.312;12.372;2023-06-10T12:13:50;7.57;;;5.80;;
3417;SDS011;68007;51.312;12.372;2023-06-10T12:16:18;10.43;;;6.00;;
3417;SDS011;68007;51.312;12.372;2023-06-10T12:18:45;8.00;;;5.77;;
3417;SDS011;68007;51.312;12.372;2023-06-10T12:21:18;6.20;;;5.53;;
3417;SDS011;68007;51.312;12.372;2023-06-10T12:24:02;6.43;;;5.77;;
3417;SDS011;68007;51.312;12.372;2023-06-10T12:26:36;7.90;;;5.50;;
3417;SDS011;68007;51.312;12.372;2023-06-10T12:29:13;6.77;;;5.83;;
3417;SDS011;68007;51.312;12.372;2023-06-10T12:32:00;6.90;;;5.03;;
3417;SDS011;68007;51.312;12.372;2023-06-10T12:34:30;7.53;;;4.93;;
3417;SDS011;68007;51.312;12.372;2023-06-10T12:36:59;10.33;;;5.40;;
3417;SDS011;68007;51.312;12.372;2023-06-10T12:39:30;8.37;;;4.97;;
3417;SDS011;68007;51.312;12.372;2023-06-10T12:41:59;6.73;;;5.70;;
3417;SDS011;68007;51.312;12.372;2023-06-10T12:44:28;6.17;;;5.00;;
3417;SDS011;68007;51.312;12.372;2023-06-10T12:46:56;8.60;;;5.47;;
3417;SDS011;68007;51.312;12.372;2023-06-10T12:49:24;9.37;;;5.23;;
3417;SDS011;68007;51.312;12.372;2023-06-10T12:51:52;5.83;;;5.10;;
3417;SDS011;68007;51.312;12.372;2023-06-10T12:54:20;7.13;;;5.33;;
3417;SDS011;68007;51.312;12.372;2023-06-10T12:56:48;26.87;;;5.50;;
3417;SDS011;68007;51.312;12.372;2023-06-10T12:59:18;9.07;;;5.50;;
3417;SDS011;68007;51.312;12.372;2023-06-10T13:01:49;5.73;;;5.20;;
3417;SDS011;68007;51.312;12.372;2023-06-10T13:04:17;7.33;;;5.47;;
3417;SDS011;68007;51.312;12.372;2023-06-10T13:06:45;7.00;;;5.30;;
3417;SDS011;68007;51.312;12.372;2023-06-10T13:09:14;6.10;;;4.80;;
3417;SDS011;68007;51.312;12.372;2023-06-10T13:11:42;9.70;;;5.57;;
3417;SDS011;68007;51.312;12.372;2023-06-10T13:14:10;11.10;;;5.43;;
3417;SDS011;68007;51.312;12.372;2023-06-10T13:16:39;7.40;;;5.47;;
3417;SDS011;68007;51.312;12.372;2023-06-10T13:19:09;8.53;;;5.40;;
3417;SDS011;68007;51.312;12.372;2023-06-10T13:21:37;8.13;;;4.90;;
3417;SDS011;68007;51.312;12.372;2023-06-10T13:24:04;6.60;;;5.40;;
3417;SDS011;68007;51.312;12.372;2023-06-10T13:26:33;6.90;;;4.37;;
3417;SDS011;68007;51.312;12.372;2023-06-10T13:29:00;4.73;;;4.33;;
3417;SDS011;68007;51.312;12.372;2023-06-10T13:31:28;5.33;;;4.70;;
3417;SDS011;68007;51.312;12.372;2023-06-10T13:33:56;5.50;;;3.93;;
3417;SDS011;68007;51.312;12.372;2023-06-10T13:36:24;5.27;;;4.27;;
3417;SDS011;68007;51.312;12.372;2023-06-10T13:38:52;6.97;;;3.80;;
3417;SDS011;68007;51.312;12.372;2023-06-10T13:41:19;5.10;;;3.73;;
3417;SDS011;68007;51.312;12.372;2023-06-10T13:43:47;5.20;;;4.57;;
3417;SDS011;68007;51.312;12.372;2023-06-10T13:46:14;4.23;;;3.83;;
3417;SDS011;68007;51.312;12.372;2023-06-10T13:48:42;6.47;;;3.60;;
3417;SDS011;68007;51.312;12.372;2023-06-10T13:51:10;3.90;;;3.60;;
3417;SDS011;68007;51.312;12.372;2023-06-10T13:53:38;3.53;;;3.10;;
3417;SDS011;68007;51.312;12.372;2023-06-10T13:56:05;3.50;;;3.20;;
3417;SDS011;68007;51.312;12.372;2023-06-10T13:58:33;5.90;;;3.37;;
3417;SDS011;68007;51.312;12.372;2023-06-10T14:01:04;2.90;;;2.70;;
3417;SDS011;68007;51.312;12.372;2023-06-10T14:03:32;3.50;;;3.10;;
3417;SDS011;68007;51.312;12.372;2023-06-10T14:05:59;3.87;;;3.47;;
3417;SDS011;68007;51.312;12.372;2023-06-10T14:08:28;3.53;;;3.03;;
3417;SDS011;68007;51.312;12.372;2023-06-10T14:10:56;4.73;;;2.97;;
3417;SDS011;68007;51.312;12.372;2023-06-10T14:13:24;4.87;;;3.10;;
3417;SDS011;68007;51.312;12.372;2023-06-10T14:15:51;5.67;;;3.57;;
3417;SDS011;68007;51.312;12.372;2023-06-10T14:18:19;3.53;;;3.23;;
3417;SDS011;68007;51.312;12.372;2023-06-10T14:20:46;4.40;;;3.20;;
3417;SDS011;68007;51.312;12.372;2023-06-10T14:23:14;3.60;;;3.10;;
3417;SDS011;68007;51.312;12.372;2023-06-10T14:25:43;3.20;;;2.90;;
3417;SDS011;68007;51.312;12.372;2023-06-10T14:28:10;3.33;;;2.83;;
3417;SDS011;68007;51.312;12.372;2023-06-10T14:30:38;3.40;;;3.10;;
3417;SDS011;68007;51.312;12.372;2023-06-10T14:33:05;3.83;;;3.03;;
3417;SDS011;68007;51.312;12.372;2023-06-10T14:35:32;3.57;;;3.27;;
3417;SDS011;68007;51.312;12.372;2023-06-10T14:38:00;3.70;;;3.10;;
3417;SDS011;68007;51.312;12.372;2023-06-10T14:40:27;2.93;;;2.70;;
3417;SDS011;68007;51.312;12.372;2023-06-10T14:42:56;3.40;;;3.00;;
3417;SDS011;68007;51.312;12.372;2023-06-10T14:45:25;3.50;;;3.20;;
3417;SDS011;68007;51.312;12.372;2023-06-10T14:47:53;4.20;;;3.00;;
3417;SDS011;68007;51.312;12.372;2023-06-10T14:50:21;4.20;;;3.20;;
3417;SDS011;68007;51.312;12.372;2023-06-10T14:52:48;3.20;;;2.90;;
3417;SDS011;68007;51.312;12.372;2023-06-10T14:55:15;4.37;;;3.07;;
3417;SDS011;68007;51.312;12.372;2023-06-10T14:57:43;4.10;;;3.20;;